METAR Data
IDs: Format: Raw Decoded Include TAF

Data at: 2120 UTC 01 Dec 2021

LFAQ 012100Z AUTO 28004KT 9999 FEW023/// BKN033/// BKN047/// ///TCU 04/04 Q1001